Time;durP1;ratioP1;P1;durP2;ratioP2;P2;SDS_P1;SDS_P2;PMS_P1;PMS_P2;Temp;Humidity;BMP_temperature;BMP_pressure;BME280_temperature;BME280_humidity;BME280_pressure;Samples;Min_cycle;Max_cycle;Signal;HPM_P1;HPM_P2
2022/07/13 00:00:33;;;;;;;;;;;22.50;88.90;;;;;;5097820;28;19908;-60
2022/07/13 00:02:59;;;;;;;;;;;22.50;88.90;;;;;;5097783;28;19916;-60
2022/07/13 00:05:24;;;;;;;;;;;22.50;88.90;;;;;;5098366;28;19924;-60
2022/07/13 00:07:50;;;;;;;;;;;22.50;88.90;;;;;;5098050;28;20007;-60
2022/07/13 00:10:15;;;;;;;;;;;22.50;88.90;;;;;;5098303;28;20358;-60
2022/07/13 00:12:41;;;;;;;;;;;22.50;88.80;;;;;;5079754;28;19909;-60
2022/07/13 00:15:07;;;;;;;;;;;22.50;88.90;;;;;;5097625;28;19913;-60
2022/07/13 00:17:32;;;;;;;;;;;22.50;88.90;;;;;;5097621;28;20366;-60
2022/07/13 00:19:57;;;;;;;;;;;22.50;88.90;;;;;;5097491;28;19915;-60
2022/07/13 00:22:23;;;;;;;;;;;22.50;88.90;;;;;;5079693;28;19966;-60
2022/07/13 00:24:49;;;;;;;;;;;22.50;88.90;;;;;;5097802;28;20347;-60
2022/07/13 00:27:14;;;;;;;;;;;22.50;88.90;;;;;;5097762;28;19916;-60
2022/07/13 00:29:40;;;;;;;;;;;22.50;88.90;;;;;;5097627;28;20307;-60
2022/07/13 00:32:05;;;;;;;;;;;22.50;88.90;;;;;;5097303;28;20088;-60
2022/07/13 00:34:32;;;;;;;;;;;22.50;88.90;;;;;;5097567;28;20267;-60
2022/07/13 00:36:58;;;;;;;;;;;22.50;88.90;;;;;;5097288;28;19908;-60
2022/07/13 00:39:23;;;;;;;;;;;22.50;88.90;;;;;;5097101;28;19915;-60
2022/07/13 00:41:49;;;;;;;;;;;22.50;88.90;;;;;;5097221;28;20033;-60
2022/07/13 00:44:15;;;;;;;;;;;22.50;88.90;;;;;;5097030;28;19999;-60
2022/07/13 00:46:44;;;;;;;;;;;22.50;88.90;;;;;;5097189;28;19912;-60
2022/07/13 00:49:11;;;;;;;;;;;22.50;88.90;;;;;;5097113;28;19912;-60
2022/07/13 00:51:37;;;;;;;;;;;22.50;88.90;;;;;;5097143;28;19912;-60
2022/07/13 00:54:03;;;;;;;;;;;22.50;88.90;;;;;;5097203;28;20393;-60
2022/07/13 00:56:28;;;;;;;;;;;22.50;88.90;;;;;;5097160;28;19960;-60
2022/07/13 00:58:55;;;;;;;;;;;22.50;88.90;;;;;;5097077;28;20324;-60
2022/07/13 01:01:21;;;;;;;;;;;22.50;88.90;;;;;;5097044;28;19908;-60
2022/07/13 01:03:46;;;;;;;;;;;22.50;88.90;;;;;;5096709;28;19954;-60
2022/07/13 01:06:12;;;;;;;;;;;22.50;88.90;;;;;;5096890;28;20211;-60
2022/07/13 01:08:38;;;;;;;;;;;22.50;88.90;;;;;;5096517;28;20014;-60
2022/07/13 01:11:04;;;;;;;;;;;22.50;88.90;;;;;;5096816;28;19908;-60
2022/07/13 01:13:29;;;;;;;;;;;22.50;88.90;;;;;;5096868;28;19916;-60
2022/07/13 01:15:55;;;;;;;;;;;22.50;88.90;;;;;;5096476;28;19909;-60
2022/07/13 01:18:20;;;;;;;;;;;22.50;89.00;;;;;;5096558;28;19915;-60
2022/07/13 01:20:46;;;;;;;;;;;22.50;88.90;;;;;;5096671;28;19919;-60
2022/07/13 01:23:12;;;;;;;;;;;22.50;88.90;;;;;;5096367;28;19908;-60
2022/07/13 01:25:38;;;;;;;;;;;22.50;88.90;;;;;;5096523;28;19919;-60
2022/07/13 01:28:04;;;;;;;;;;;22.50;89.00;;;;;;5096539;28;19912;-60
2022/07/13 01:30:29;;;;;;;;;;;22.50;89.00;;;;;;5096517;28;19908;-60
2022/07/13 01:32:55;;;;;;;;;;;22.50;89.00;;;;;;5078311;28;19931;-61
2022/07/13 01:35:21;;;;;;;;;;;22.50;89.00;;;;;;5096432;28;20420;-61
2022/07/13 01:37:47;;;;;;;;;;;22.50;89.00;;;;;;5096021;28;19919;-60
2022/07/13 01:40:13;;;;;;;;;;;22.50;89.00;;;;;;5096578;28;19908;-60
2022/07/13 01:42:42;;;;;;;;;;;22.50;89.00;;;;;;5096558;28;19915;-60
2022/07/13 01:45:07;;;;;;;;;;;22.50;89.00;;;;;;5095715;28;19915;-60
2022/07/13 01:47:36;;;;;;;;;;;22.50;89.00;;;;;;5095781;28;19916;-60
2022/07/13 01:50:02;;;;;;;;;;;22.50;89.00;;;;;;5096073;28;19940;-60
2022/07/13 01:52:27;;;;;;;;;;;22.50;89.00;;;;;;5095757;28;19947;-60
2022/07/13 01:54:53;;;;;;;;;;;22.50;88.90;;;;;;5096047;28;19908;-60
2022/07/13 01:57:18;;;;;;;;;;;22.40;88.90;;;;;;5095632;28;20299;-60
2022/07/13 01:59:44;;;;;;;;;;;22.50;89.00;;;;;;5095639;28;19915;-60
2022/07/13 02:02:09;;;;;;;;;;;22.50;89.00;;;;;;5095777;28;19912;-60
2022/07/13 02:04:35;;;;;;;;;;;22.50;89.00;;;;;;5095477;28;19908;-60
2022/07/13 02:07:00;;;;;;;;;;;22.50;89.00;;;;;;5095677;28;19916;-60
2022/07/13 02:09:26;;;;;;;;;;;22.50;89.00;;;;;;5077629;28;19916;-60
2022/07/13 02:11:51;;;;;;;;;;;22.50;89.00;;;;;;5095362;28;20378;-60
2022/07/13 02:14:17;;;;;;;;;;;22.50;89.00;;;;;;5094770;28;19912;-60
2022/07/13 02:16:42;;;;;;;;;;;22.50;89.00;;;;;;5095806;28;19916;-61
2022/07/13 02:19:08;;;;;;;;;;;22.50;89.00;;;;;;5095444;28;19909;-60
2022/07/13 02:21:33;;;;;;;;;;;22.50;89.00;;;;;;5095126;28;19942;-60
2022/07/13 02:23:59;;;;;;;;;;;22.50;89.00;;;;;;5095104;28;20414;-60
2022/07/13 02:26:24;;;;;;;;;;;22.40;88.90;;;;;;5095008;28;19920;-60
2022/07/13 02:28:50;;;;;;;;;;;22.50;89.00;;;;;;5095050;28;19916;-60
2022/07/13 02:31:18;;;;;;;;;;;22.50;89.00;;;;;;5094941;28;19958;-60
2022/07/13 02:33:43;;;;;;;;;;;22.50;89.00;;;;;;5095566;28;19912;-60
2022/07/13 02:36:09;;;;;;;;;;;22.40;89.00;;;;;;5094852;28;20368;-60
2022/07/13 02:38:34;;;;;;;;;;;22.50;89.00;;;;;;5095131;28;19908;-61
2022/07/13 02:41:00;;;;;;;;;;;22.40;89.00;;;;;;5095416;28;20339;-60
2022/07/13 02:43:25;;;;;;;;;;;22.50;89.00;;;;;;5095033;28;19912;-60
2022/07/13 02:45:51;;;;;;;;;;;22.50;89.00;;;;;;5094710;28;20255;-60
2022/07/13 02:48:18;;;;;;;;;;;22.40;89.00;;;;;;5094910;28;19912;-60
2022/07/13 02:50:44;;;;;;;;;;;22.40;89.00;;;;;;5094928;28;19908;-60
2022/07/13 02:53:09;;;;;;;;;;;22.50;89.00;;;;;;5094819;28;19915;-60
2022/07/13 02:55:35;;;;;;;;;;;22.40;89.00;;;;;;5076527;28;19914;-60
2022/07/13 02:58:00;;;;;;;;;;;22.40;89.00;;;;;;5094485;28;19920;-60
2022/07/13 03:00:26;;;;;;;;;;;22.40;89.00;;;;;;5094647;28;20358;-61
2022/07/13 03:02:51;;;;;;;;;;;22.40;89.00;;;;;;5094405;28;19916;-60
2022/07/13 03:05:17;;;;;;;;;;;22.40;89.00;;;;;;5094210;28;19935;-60
2022/07/13 03:07:42;;;;;;;;;;;22.40;89.00;;;;;;5094579;28;19912;-60
2022/07/13 03:10:08;;;;;;;;;;;22.40;89.00;;;;;;5094214;28;20274;-60
2022/07/13 03:12:34;;;;;;;;;;;22.40;89.00;;;;;;5094472;28;19912;-60
2022/07/13 03:14:59;;;;;;;;;;;22.40;89.00;;;;;;5094193;28;19908;-60
2022/07/13 03:17:25;;;;;;;;;;;22.40;89.00;;;;;;5094702;28;19995;-60
2022/07/13 03:19:50;;;;;;;;;;;22.40;89.00;;;;;;5094377;28;19915;-60
2022/07/13 03:22:16;;;;;;;;;;;22.40;89.00;;;;;;5094152;28;20358;-60
2022/07/13 03:24:41;;;;;;;;;;;22.40;89.50;;;;;;5094086;28;19909;-60
2022/07/13 03:27:07;;;;;;;;;;;22.40;89.00;;;;;;5093117;28;19970;-60
2022/07/13 03:29:33;;;;;;;;;;;22.40;89.00;;;;;;5076231;28;19916;-60
2022/07/13 03:31:58;;;;;;;;;;;22.40;89.00;;;;;;5094166;28;19908;-60
2022/07/13 03:34:23;;;;;;;;;;;22.40;89.00;;;;;;5075876;28;19962;-60
2022/07/13 03:36:49;;;;;;;;;;;22.40;89.00;;;;;;5094165;28;20011;-60
2022/07/13 03:39:14;;;;;;;;;;;22.40;89.00;;;;;;5094193;28;19908;-60
2022/07/13 03:41:40;;;;;;;;;;;22.40;89.00;;;;;;5094172;28;19914;-60
2022/07/13 03:44:06;;;;;;;;;;;22.40;89.00;;;;;;5094482;28;19922;-60
2022/07/13 03:46:32;;;;;;;;;;;22.40;89.00;;;;;;5093759;28;19918;-59
2022/07/13 03:48:57;;;;;;;;;;;22.40;89.00;;;;;;5093759;28;20011;-60
2022/07/13 03:51:23;;;;;;;;;;;22.40;89.00;;;;;;5076051;28;19999;-60
2022/07/13 03:53:48;;;;;;;;;;;22.40;89.10;;;;;;5075921;28;20474;-60
2022/07/13 03:56:13;;;;;;;;;;;22.40;89.00;;;;;;5093671;28;19995;-59
2022/07/13 03:58:39;;;;;;;;;;;22.50;89.10;;;;;;5094088;28;20244;-59
2022/07/13 04:01:05;;;;;;;;;;;22.50;89.00;;;;;;5093960;28;19940;-59
2022/07/13 04:03:31;;;;;;;;;;;22.50;89.00;;;;;;5093958;28;19957;-59
2022/07/13 04:05:56;;;;;;;;;;;22.50;89.00;;;;;;5093907;28;19916;-59
2022/07/13 04:08:22;;;;;;;;;;;22.50;89.00;;;;;;5093865;28;19951;-59
2022/07/13 04:10:47;;;;;;;;;;;22.50;89.00;;;;;;5093630;28;19912;-59
2022/07/13 04:13:13;;;;;;;;;;;22.50;89.00;;;;;;5093465;28;19914;-59
2022/07/13 04:15:38;;;;;;;;;;;22.50;89.00;;;;;;5093692;28;19915;-59
2022/07/13 04:18:04;;;;;;;;;;;22.50;89.00;;;;;;5093726;28;19908;-59
2022/07/13 04:20:29;;;;;;;;;;;22.50;88.90;;;;;;5093685;28;20384;-59
2022/07/13 04:22:55;;;;;;;;;;;22.50;88.90;;;;;;5093719;28;19908;-59
2022/07/13 04:25:21;;;;;;;;;;;22.50;88.90;;;;;;5093255;28;19915;-59
2022/07/13 04:27:46;;;;;;;;;;;22.60;89.00;;;;;;5093320;28;20298;-59
2022/07/13 04:30:12;;;;;;;;;;;22.60;88.90;;;;;;5093923;28;19915;-59
2022/07/13 04:32:37;;;;;;;;;;;22.60;88.90;;;;;;5093095;28;20266;-58
2022/07/13 04:35:03;;;;;;;;;;;22.60;88.80;;;;;;5093241;28;19962;-59
2022/07/13 04:37:28;;;;;;;;;;;22.60;88.80;;;;;;5093614;28;19912;-59
2022/07/13 04:39:54;;;;;;;;;;;22.60;88.90;;;;;;5097388;28;19908;-59
2022/07/13 04:42:19;;;;;;;;;;;22.60;88.80;;;;;;5097000;28;19915;-59
2022/07/13 04:44:44;;;;;;;;;;;22.60;88.90;;;;;;5096503;28;19908;-59
2022/07/13 04:47:10;;;;;;;;;;;22.60;88.90;;;;;;5096879;28;19934;-59
2022/07/13 04:49:36;;;;;;;;;;;22.60;88.90;;;;;;5096655;28;19919;-59
2022/07/13 04:52:01;;;;;;;;;;;22.60;88.90;;;;;;5096961;28;20274;-59
2022/07/13 04:54:27;;;;;;;;;;;22.60;88.90;;;;;;5096445;28;20259;-59
2022/07/13 04:56:52;;;;;;;;;;;22.60;88.90;;;;;;5096837;28;19908;-59
2022/07/13 04:59:18;;;;;;;;;;;22.60;89.00;;;;;;5096877;28;19931;-59
2022/07/13 05:01:43;;;;;;;;;;;22.60;88.90;;;;;;5096705;28;19909;-59
2022/07/13 05:04:09;;;;;;;;;;;22.60;89.00;;;;;;5096232;28;20003;-60
2022/07/13 05:06:34;;;;;;;;;;;22.60;89.00;;;;;;5078343;28;19965;-60
2022/07/13 05:09:00;;;;;;;;;;;22.60;89.00;;;;;;5096425;28;20015;-60
2022/07/13 05:11:26;;;;;;;;;;;22.60;89.00;;;;;;5096506;28;19947;-60
2022/07/13 05:13:52;;;;;;;;;;;22.70;89.00;;;;;;5096578;28;19915;-60
2022/07/13 05:16:18;;;;;;;;;;;22.60;89.00;;;;;;5096272;28;19909;-59
2022/07/13 05:18:43;;;;;;;;;;;22.70;89.00;;;;;;5078078;28;19954;-59
2022/07/13 05:21:10;;;;;;;;;;;22.60;89.00;;;;;;5096361;28;19940;-59
2022/07/13 05:23:36;;;;;;;;;;;22.70;89.00;;;;;;5096269;28;19912;-59
2022/07/13 05:26:02;;;;;;;;;;;22.60;89.00;;;;;;5095537;28;19919;-59
2022/07/13 05:28:27;;;;;;;;;;;22.60;89.00;;;;;;5096109;28;20023;-60
2022/07/13 05:30:53;;;;;;;;;;;22.70;89.10;;;;;;5096374;28;19908;-60
2022/07/13 05:33:20;;;;;;;;;;;22.60;89.10;;;;;;5096016;28;20274;-60
2022/07/13 05:35:45;;;;;;;;;;;22.60;89.10;;;;;;5096044;28;19916;-60
2022/07/13 05:38:11;;;;;;;;;;;22.70;89.10;;;;;;5077508;28;19915;-60
2022/07/13 05:40:37;;;;;;;;;;;22.60;89.10;;;;;;5095782;28;20266;-60
2022/07/13 05:43:02;;;;;;;;;;;22.60;89.10;;;;;;5095506;28;19912;-60
2022/07/13 05:45:29;;;;;;;;;;;22.60;89.10;;;;;;5095674;28;19919;-60
2022/07/13 05:47:54;;;;;;;;;;;22.60;89.10;;;;;;5095419;28;20073;-60
2022/07/13 05:50:19;;;;;;;;;;;22.60;89.00;;;;;;5094562;28;19958;-60
2022/07/13 05:52:45;;;;;;;;;;;22.60;89.10;;;;;;5095339;28;19919;-60
2022/07/13 05:55:11;;;;;;;;;;;22.70;89.10;;;;;;5095453;28;19908;-60
2022/07/13 05:57:40;;;;;;;;;;;22.60;89.10;;;;;;5095720;28;20244;-60
2022/07/13 06:00:08;;;;;;;;;;;22.60;89.00;;;;;;5095580;28;20010;-60
2022/07/13 06:02:34;;;;;;;;;;;22.60;89.20;;;;;;5095075;28;19908;-60
2022/07/13 06:04:59;;;;;;;;;;;22.60;89.10;;;;;;5095665;28;19915;-60
2022/07/13 06:07:25;;;;;;;;;;;22.60;89.10;;;;;;5095034;28;19912;-60
2022/07/13 06:09:50;;;;;;;;;;;22.60;89.20;;;;;;5095284;28;19920;-60
2022/07/13 06:12:16;;;;;;;;;;;22.60;89.10;;;;;;5095324;28;20014;-60
2022/07/13 06:14:41;;;;;;;;;;;22.60;89.10;;;;;;5095022;28;20363;-60
2022/07/13 06:17:07;;;;;;;;;;;22.70;89.20;;;;;;5094998;28;19908;-60
2022/07/13 06:19:33;;;;;;;;;;;22.60;89.20;;;;;;5095401;28;20274;-60
2022/07/13 06:21:59;;;;;;;;;;;22.60;89.10;;;;;;5095218;28;19915;-60
2022/07/13 06:24:24;;;;;;;;;;;22.60;89.10;;;;;;5095389;28;19908;-59
2022/07/13 06:26:50;;;;;;;;;;;22.60;89.10;;;;;;5076730;28;19912;-60
2022/07/13 06:29:15;;;;;;;;;;;22.60;89.20;;;;;;5095002;28;19947;-60
2022/07/13 06:31:41;;;;;;;;;;;22.60;89.10;;;;;;5094893;28;19908;-60
2022/07/13 06:34:06;;;;;;;;;;;22.60;89.10;;;;;;5095143;28;20374;-60
2022/07/13 06:36:32;;;;;;;;;;;22.60;89.10;;;;;;5094844;28;20019;-60
2022/07/13 06:38:57;;;;;;;;;;;22.60;89.10;;;;;;5094642;28;20332;-59
2022/07/13 06:41:22;;;;;;;;;;;22.60;89.20;;;;;;5076493;28;19909;-60
2022/07/13 06:43:48;;;;;;;;;;;22.60;89.20;;;;;;5094468;28;19908;-60
2022/07/13 06:46:13;;;;;;;;;;;22.60;89.20;;;;;;5094776;28;20402;-60
2022/07/13 06:48:39;;;;;;;;;;;22.60;89.20;;;;;;5094430;28;19912;-60
2022/07/13 06:51:04;;;;;;;;;;;22.60;89.20;;;;;;5094391;28;19992;-60
2022/07/13 06:53:30;;;;;;;;;;;22.60;89.10;;;;;;5110322;28;19931;-61
2022/07/13 06:55:56;;;;;;;;;;;22.60;89.10;;;;;;5094593;28;19908;-60
2022/07/13 06:58:22;;;;;;;;;;;22.60;89.20;;;;;;5094268;28;20367;-60
2022/07/13 07:00:47;;;;;;;;;;;22.60;89.20;;;;;;5094522;28;20033;-60
2022/07/13 07:03:13;;;;;;;;;;;22.60;89.20;;;;;;5093876;28;20346;-60
2022/07/13 07:05:38;;;;;;;;;;;22.60;89.20;;;;;;5093959;28;20408;-59
2022/07/13 07:08:04;;;;;;;;;;;22.60;89.20;;;;;;5094147;28;19955;-59
2022/07/13 07:10:30;;;;;;;;;;;22.60;89.20;;;;;;5093949;28;19961;-59
2022/07/13 07:12:55;;;;;;;;;;;22.60;89.20;;;;;;5094427;28;19908;-59
2022/07/13 07:15:21;;;;;;;;;;;22.60;89.20;;;;;;5094132;28;20369;-59
2022/07/13 07:17:47;;;;;;;;;;;22.60;89.20;;;;;;5094400;28;19912;-59
2022/07/13 07:20:13;;;;;;;;;;;22.60;89.30;;;;;;5094086;28;19908;-59
2022/07/13 07:22:38;;;;;;;;;;;22.60;89.30;;;;;;5093956;28;19927;-59
2022/07/13 07:25:04;;;;;;;;;;;22.60;89.20;;;;;;5093644;28;19908;-59
2022/07/13 07:27:29;;;;;;;;;;;22.60;89.20;;;;;;5093561;28;19923;-59
2022/07/13 07:29:55;;;;;;;;;;;22.60;89.30;;;;;;5093643;28;19909;-59
2022/07/13 07:32:21;;;;;;;;;;;22.60;89.20;;;;;;5093819;28;19961;-59
2022/07/13 07:34:46;;;;;;;;;;;22.60;89.20;;;;;;5093848;28;19916;-59
2022/07/13 07:37:12;;;;;;;;;;;22.60;89.30;;;;;;5093816;28;20010;-59
2022/07/13 07:39:37;;;;;;;;;;;22.60;89.30;;;;;;5075545;28;19930;-59
2022/07/13 07:42:04;;;;;;;;;;;22.60;89.30;;;;;;5093842;28;19919;-59
2022/07/13 07:44:29;;;;;;;;;;;22.60;89.30;;;;;;5093731;28;19955;-59
2022/07/13 07:46:55;;;;;;;;;;;22.60;89.30;;;;;;5093519;28;19959;-59
2022/07/13 07:49:20;;;;;;;;;;;22.60;89.30;;;;;;5093129;28;20388;-59
2022/07/13 07:51:46;;;;;;;;;;;22.60;89.30;;;;;;5093236;28;19912;-59
2022/07/13 07:54:11;;;;;;;;;;;22.60;89.30;;;;;;5093662;28;19909;-59
2022/07/13 07:56:37;;;;;;;;;;;22.60;89.30;;;;;;5093692;28;20278;-59
2022/07/13 07:59:02;;;;;;;;;;;22.60;89.30;;;;;;5093643;28;19920;-59
2022/07/13 08:01:28;;;;;;;;;;;22.60;89.30;;;;;;5093305;28;19908;-59
2022/07/13 08:03:54;;;;;;;;;;;22.60;89.30;;;;;;5093529;28;19916;-59
2022/07/13 08:06:20;;;;;;;;;;;22.60;89.30;;;;;;5075512;28;19916;-59
2022/07/13 08:08:46;;;;;;;;;;;22.60;89.30;;;;;;5093548;28;20543;-59
2022/07/13 08:11:16;;;;;;;;;;;22.60;89.30;;;;;;5093462;28;20263;-59
2022/07/13 08:13:42;;;;;;;;;;;22.60;89.30;;;;;;5095808;28;19909;-59
2022/07/13 08:16:07;;;;;;;;;;;22.60;89.30;;;;;;5097806;28;19931;-59
2022/07/13 08:18:33;;;;;;;;;;;22.60;89.30;;;;;;5097595;28;19912;-59
2022/07/13 08:20:58;;;;;;;;;;;22.60;89.30;;;;;;5097274;28;19915;-59
2022/07/13 08:26:08;;;;;;;;;;;22.60;89.30;;;;;;5097218;28;19956;-60
2022/07/13 08:28:33;;;;;;;;;;;22.70;89.40;;;;;;5096958;28;19916;-60
2022/07/13 08:30:59;;;;;;;;;;;22.60;89.30;;;;;;5097352;28;19908;-60
2022/07/13 08:38:52;;;;;;;;;;;22.60;89.30;;;;;;5096890;28;19930;-60
2022/07/13 08:41:18;;;;;;;;;;;22.70;89.40;;;;;;5096937;28;20354;-60
2022/07/13 08:43:43;;;;;;;;;;;22.70;89.40;;;;;;5097134;28;19995;-60
2022/07/13 08:46:09;;;;;;;;;;;22.60;89.30;;;;;;5097012;28;19912;-60
2022/07/13 08:48:37;;;;;;;;;;;22.70;89.40;;;;;;5097007;28;20413;-59
2022/07/13 08:51:03;;;;;;;;;;;22.70;89.30;;;;;;5096861;28;20109;-60
2022/07/13 08:53:28;;;;;;;;;;;22.70;89.30;;;;;;5096686;28;19908;-60
2022/07/13 08:55:56;;;;;;;;;;;22.70;89.30;;;;;;5096916;28;19908;-61
2022/07/13 08:58:22;;;;;;;;;;;22.70;89.40;;;;;;5096470;28;19927;-59
2022/07/13 09:00:48;;;;;;;;;;;22.70;89.40;;;;;;5096441;28;19934;-59
2022/07/13 09:03:14;;;;;;;;;;;22.70;89.30;;;;;;5096826;28;19930;-59
2022/07/13 09:05:39;;;;;;;;;;;22.70;89.30;;;;;;5096334;28;19912;-59
2022/07/13 09:08:09;;;;;;;;;;;22.70;89.30;;;;;;5096161;28;19994;-60
2022/07/13 09:10:51;;;;;;;;;;;22.70;89.30;;;;;;5078625;28;19908;-59
2022/07/13 09:13:31;;;;;;;;;;;22.70;89.30;;;;;;5096705;28;19912;-59
2022/07/13 09:16:11;;;;;;;;;;;22.70;89.30;;;;;;5096246;28;20355;-60
2022/07/13 09:18:37;;;;;;;;;;;22.70;89.30;;;;;;5096349;28;19912;-59
2022/07/13 09:21:02;;;;;;;;;;;22.70;89.30;;;;;;5096357;28;20236;-59
2022/07/13 09:23:31;;;;;;;;;;;22.70;89.30;;;;;;5095656;28;19908;-59
2022/07/13 09:25:56;;;;;;;;;;;22.70;89.30;;;;;;5095140;28;20022;-59
2022/07/13 09:28:22;;;;;;;;;;;22.70;89.30;;;;;;5096272;28;19950;-60
2022/07/13 09:30:48;;;;;;;;;;;22.70;89.30;;;;;;5096552;28;19915;-60
2022/07/13 09:33:13;;;;;;;;;;;22.70;89.30;;;;;;5096088;28;19944;-60
2022/07/13 09:35:39;;;;;;;;;;;22.70;89.40;;;;;;5096098;28;19961;-60
2022/07/13 09:38:04;;;;;;;;;;;22.70;89.40;;;;;;5095758;28;20235;-59
2022/07/13 09:40:29;;;;;;;;;;;22.70;89.30;;;;;;5096026;28;19908;-59
2022/07/13 09:48:24;;;;;;;;;;;22.70;89.30;;;;;;5095688;28;20031;-60
2022/07/13 09:50:53;;;;;;;;;;;22.80;89.30;;;;;;5095654;28;19957;-60
2022/07/13 09:53:29;;;;;;;;;;;22.80;89.40;;;;;;5077787;28;19908;-60
2022/07/13 09:55:58;;;;;;;;;;;22.80;89.30;;;;;;5095434;28;20457;-60
2022/07/13 09:58:28;;;;;;;;;;;22.70;89.30;;;;;;5095561;28;19973;-60
2022/07/13 10:00:55;;;;;;;;;;;22.80;89.30;;;;;;5077462;28;19956;-60
2022/07/13 10:03:21;;;;;;;;;;;22.80;89.40;;;;;;5095504;28;19907;-60
2022/07/13 10:05:47;;;;;;;;;;;22.80;89.40;;;;;;5095328;28;19923;-60
2022/07/13 10:08:16;;;;;;;;;;;22.70;89.30;;;;;;5095037;28;19913;-60
2022/07/13 10:10:42;;;;;;;;;;;22.70;89.30;;;;;;5095480;28;19931;-60
2022/07/13 10:13:08;;;;;;;;;;;22.80;89.40;;;;;;5095189;28;19908;-60
2022/07/13 10:15:33;;;;;;;;;;;22.70;89.30;;;;;;5077004;28;19961;-60
2022/07/13 10:18:00;;;;;;;;;;;22.80;89.40;;;;;;5077189;28;19908;-60
2022/07/13 10:20:25;;;;;;;;;;;22.80;89.40;;;;;;5095619;28;19934;-60
2022/07/13 10:22:51;;;;;;;;;;;22.80;89.40;;;;;;5095629;28;19909;-59
2022/07/13 10:25:17;;;;;;;;;;;22.80;89.40;;;;;;5094786;28;19919;-60
2022/07/13 10:27:43;;;;;;;;;;;22.80;89.40;;;;;;5094771;28;19957;-59
2022/07/13 10:30:10;;;;;;;;;;;22.80;89.40;;;;;;5095105;28;19908;-60
2022/07/13 10:32:37;;;;;;;;;;;22.80;89.40;;;;;;5094981;28;19908;-60
2022/07/13 10:35:09;;;;;;;;;;;22.80;89.40;;;;;;5094816;28;20363;-59
2022/07/13 10:37:53;;;;;;;;;;;22.80;89.40;;;;;;5094610;28;19909;-60
2022/07/13 10:40:20;;;;;;;;;;;22.80;89.50;;;;;;5094853;28;19908;-60
2022/07/13 10:42:55;;;;;;;;;;;22.80;89.40;;;;;;5095083;28;19931;-60
2022/07/13 10:45:38;;;;;;;;;;;22.80;89.40;;;;;;5094504;28;19908;-60
2022/07/13 10:48:22;;;;;;;;;;;22.80;89.50;;;;;;5094691;28;19919;-60
2022/07/13 10:50:47;;;;;;;;;;;22.80;89.50;;;;;;5094761;28;19908;-60
2022/07/13 10:53:15;;;;;;;;;;;22.80;89.50;;;;;;5094580;28;19915;-60
2022/07/13 10:55:47;;;;;;;;;;;22.80;89.50;;;;;;5094553;28;19915;-60
2022/07/13 10:58:31;;;;;;;;;;;22.80;89.50;;;;;;5094328;28;19943;-60
2022/07/13 11:00:57;;;;;;;;;;;22.80;89.50;;;;;;5094509;28;19912;-60
2022/07/13 11:03:24;;;;;;;;;;;22.80;89.50;;;;;;5076483;28;19908;-59
2022/07/13 11:06:13;;;;;;;;;;;22.80;89.50;;;;;;5093957;28;20219;-59
2022/07/13 11:08:39;;;;;;;;;;;22.80;89.50;;;;;;5094483;28;20329;-59
2022/07/13 11:11:11;;;;;;;;;;;22.80;89.50;;;;;;5094255;28;19908;-59
2022/07/13 11:13:37;;;;;;;;;;;22.80;89.50;;;;;;5094267;28;19919;-59
2022/07/13 11:16:03;;;;;;;;;;;22.80;89.50;;;;;;5094318;28;19908;-59
2022/07/13 11:18:30;;;;;;;;;;;22.80;89.50;;;;;;5094079;28;19908;-60
2022/07/13 11:20:56;;;;;;;;;;;22.80;89.50;;;;;;5075831;28;20421;-60
2022/07/13 11:26:12;;;;;;;;;;;22.80;89.50;;;;;;5093837;28;19923;-60
2022/07/13 11:28:41;;;;;;;;;;;22.80;89.50;;;;;;5093852;28;19920;-60
2022/07/13 11:31:07;;;;;;;;;;;22.80;89.60;;;;;;5094067;28;19912;-60
2022/07/13 11:33:33;;;;;;;;;;;22.80;89.60;;;;;;5093683;28;20052;-60
2022/07/13 11:36:00;;;;;;;;;;;22.80;89.60;;;;;;5094227;28;19943;-60
2022/07/13 11:38:33;;;;;;;;;;;22.80;89.60;;;;;;5093948;28;19908;-60
2022/07/13 11:41:00;;;;;;;;;;;22.80;89.50;;;;;;5093946;28;19908;-60
2022/07/13 11:43:26;;;;;;;;;;;22.80;89.50;;;;;;5093946;28;19961;-60
2022/07/13 11:45:51;;;;;;;;;;;22.80;89.40;;;;;;5093787;28;19918;-60
2022/07/13 11:48:17;;;;;;;;;;;22.80;89.40;;;;;;5095513;28;20003;-60
2022/07/13 11:50:48;;;;;;;;;;;22.80;89.40;;;;;;5097893;28;19995;-60
2022/07/13 11:53:40;;;;;;;;;;;22.80;89.40;;;;;;5097871;28;19909;-59
2022/07/13 11:56:06;;;;;;;;;;;22.80;89.40;;;;;;5094600;28;19908;-60
2022/07/13 11:58:33;;;;;;;;;;;22.80;89.50;;;;;;5079315;28;20290;-60
2022/07/13 12:00:59;;;;;;;;;;;22.80;89.50;;;;;;5097712;28;20363;-61
2022/07/13 12:03:25;;;;;;;;;;;22.80;89.50;;;;;;5079640;28;19959;-60
2022/07/13 12:05:51;;;;;;;;;;;22.80;89.50;;;;;;5097830;28;20213;-59
2022/07/13 12:08:16;;;;;;;;;;;22.80;89.60;;;;;;5097597;28;19939;-59
2022/07/13 12:10:42;;;;;;;;;;;22.90;89.70;;;;;;5097828;28;20304;-59
2022/07/13 12:13:08;;;;;;;;;;;22.80;89.60;;;;;;5097351;28;20007;-59
2022/07/13 12:15:33;;;;;;;;;;;22.80;89.60;;;;;;5098015;28;19912;-59
2022/07/13 12:18:02;;;;;;;;;;;22.80;89.50;;;;;;5097598;28;19908;-59
2022/07/13 12:20:31;;;;;;;;;;;22.80;89.50;;;;;;5097125;28;19957;-59
2022/07/13 12:22:57;;;;;;;;;;;22.90;89.60;;;;;;5097356;28;20273;-59
2022/07/13 12:25:28;;;;;;;;;;;22.90;89.60;;;;;;5097401;28;19908;-57
2022/07/13 12:27:54;;;;;;;;;;;22.90;89.50;;;;;;5097434;28;19912;-59
2022/07/13 12:30:20;;;;;;;;;;;22.80;89.60;;;;;;5079168;28;20330;-59
2022/07/13 12:32:57;;;;;;;;;;;22.90;89.60;;;;;;5097374;28;19908;-59
2022/07/13 12:35:30;;;;;;;;;;;22.80;89.60;;;;;;5097005;28;20270;-59
2022/07/13 12:37:57;;;;;;;;;;;22.80;89.50;;;;;;5097056;28;19908;-59
2022/07/13 12:40:39;;;;;;;;;;;22.90;89.70;;;;;;5096993;28;19909;-59
2022/07/13 12:43:05;;;;;;;;;;;22.80;89.50;;;;;;5096825;28;19915;-59
2022/07/13 12:45:31;;;;;;;;;;;22.90;89.60;;;;;;5096636;28;19911;-59
2022/07/13 12:47:57;;;;;;;;;;;22.80;89.60;;;;;;5096625;28;19916;-59
2022/07/13 12:50:26;;;;;;;;;;;22.90;89.70;;;;;;5096775;28;20398;-59
2022/07/13 12:53:00;;;;;;;;;;;22.90;89.70;;;;;;5096616;28;19915;-60
2022/07/13 12:55:26;;;;;;;;;;;22.80;89.60;;;;;;5096685;28;20349;-59
2022/07/13 12:57:52;;;;;;;;;;;22.80;89.60;;;;;;5078501;28;19963;-59
2022/07/13 13:00:25;;;;;;;;;;;22.80;89.60;;;;;;5096129;28;20389;-59
2022/07/13 13:02:50;;;;;;;;;;;22.80;89.60;;;;;;5078410;28;20354;-59
2022/07/13 13:05:16;;;;;;;;;;;22.90;89.70;;;;;;5096448;28;19923;-59
2022/07/13 13:07:44;;;;;;;;;;;22.90;89.70;;;;;;5096623;28;20300;-59
2022/07/13 13:10:10;;;;;;;;;;;22.90;89.70;;;;;;5096111;28;19951;-60
2022/07/13 13:12:36;;;;;;;;;;;22.90;89.60;;;;;;5096227;28;19943;-59
2022/07/13 13:15:03;;;;;;;;;;;22.90;89.60;;;;;;5096423;28;19908;-59
2022/07/13 13:17:29;;;;;;;;;;;22.90;89.60;;;;;;5078096;28;19908;-59
2022/07/13 13:19:55;;;;;;;;;;;22.90;89.60;;;;;;5096247;28;19915;-59
2022/07/13 13:22:20;;;;;;;;;;;22.90;89.60;;;;;;5096022;28;19908;-59
2022/07/13 13:24:46;;;;;;;;;;;22.90;89.50;;;;;;5077810;28;19923;-60
2022/07/13 13:27:12;;;;;;;;;;;22.90;89.50;;;;;;5095884;28;19919;-60
2022/07/13 13:32:21;;;;;;;;;;;22.90;89.50;;;;;;5095980;28;19919;-60
2022/07/13 13:34:47;;;;;;;;;;;22.90;89.50;;;;;;5095798;28;19909;-60
2022/07/13 13:37:13;;;;;;;;;;;22.90;89.50;;;;;;5095959;28;19951;-60
2022/07/13 13:39:38;;;;;;;;;;;22.90;89.50;;;;;;5095583;28;20294;-60
2022/07/13 13:42:04;;;;;;;;;;;22.90;89.60;;;;;;5095459;28;20343;-60
2022/07/13 13:44:29;;;;;;;;;;;22.90;89.60;;;;;;5095889;28;19908;-60
2022/07/13 13:46:55;;;;;;;;;;;22.90;89.50;;;;;;5095519;28;19912;-60
2022/07/13 13:49:20;;;;;;;;;;;22.90;89.50;;;;;;5095772;28;19912;-60
2022/07/13 13:51:46;;;;;;;;;;;22.90;89.50;;;;;;5095375;28;19919;-60
2022/07/13 13:54:13;;;;;;;;;;;22.90;89.50;;;;;;5095362;28;19915;-60
2022/07/13 13:56:39;;;;;;;;;;;22.90;89.50;;;;;;5095678;28;19933;-60
2022/07/13 13:59:05;;;;;;;;;;;22.90;89.50;;;;;;5095817;28;20003;-60
2022/07/13 14:01:30;;;;;;;;;;;22.90;89.50;;;;;;5095037;28;19915;-60
2022/07/13 14:03:56;;;;;;;;;;;22.90;89.50;;;;;;5095035;28;19912;-59
2022/07/13 14:06:22;;;;;;;;;;;22.90;89.60;;;;;;5095309;28;19972;-59
2022/07/13 14:08:47;;;;;;;;;;;22.90;89.60;;;;;;5095416;28;19994;-59
2022/07/13 14:11:13;;;;;;;;;;;22.90;89.60;;;;;;5094735;28;19915;-59
2022/07/13 14:13:40;;;;;;;;;;;22.90;89.50;;;;;;5094982;28;19908;-59
2022/07/13 14:16:06;;;;;;;;;;;22.90;89.50;;;;;;5094852;28;19989;-59
2022/07/13 14:18:31;;;;;;;;;;;22.90;89.50;;;;;;5095219;28;20350;-59
2022/07/13 14:20:57;;;;;;;;;;;22.90;89.60;;;;;;5094967;28;20266;-59
2022/07/13 14:23:23;;;;;;;;;;;22.90;89.50;;;;;;5095033;28;19908;-59
2022/07/13 14:25:48;;;;;;;;;;;22.90;89.50;;;;;;5094719;28;19918;-59
2022/07/13 14:28:15;;;;;;;;;;;22.90;89.60;;;;;;5094671;28;19920;-60
2022/07/13 14:30:40;;;;;;;;;;;22.90;90.00;;;;;;5094964;28;20350;-60